Pagina principale
METAR-TAF:

METAR-TAF

Aeroporti :

Aeroporto Internazionale di Norwich

Norwich, Inghilterra

latitudine: 52-38N, longitudine: 001-18E, altezza: 14 m

Osservazione

Il bollettino è stato emesso 25 minuti fa, alle 06:50 UTC
Vento 15 kt da nord
Temperature 8°C
Umidità 76%
Pressione 1013 hPa
Visibilità 10 km o più
Nubi sparse ad un'altezza di 2500 ft

METAR: EGSH 180650Z 35015KT 9999 SCT025 08/04 Q1013 NOSIG

Ora: 07:15 (07:15 UTC)

Previsione

Il bollettino è stato emesso 2 ore e 12 minuti fa, alle 05:03 UTC
Previsione valida dal 18 alle 06 UTC al 18 alle 15 UTC
Vento 9 kt da nord
Visibilità 10 km o più
Nubi sparse ad un'altezza di 3000 ft
Evoluzione graduale
dal 18 alle 10 UTC al 18 alle 12 UTC
Vento 15 kt da nord con raffiche fino a 25 kt

TAF: EGSH 180503Z 1806/1815 36009KT 9999 SCT030 BECMG 1810/1812 36015G25KT

Osservazioni e previsioni meteorologiche di più di 4000 aeroporti (messaggi METAR e TAF).

Le stazioni disponibili sono rappresentate dai dischi gialli e rossi sulla carta.

Puntare il mouse per vedere il nome della stazione.

Clicca sopra per visualizzare le osservazioni e previsioni meteorologiche.

Per cambiare la mappa : fare clic sui pulsanti verdi con una croce nera per ingrandire, il pulsante verde con un trattino per diminuire, o sulla freccia verde per le mappe adiacenti.


METAR-TAF: